Search for airport 
image banner adimage banner adimage banner ad
image banner ad

IA52 - Jones Rgnl Medical Center

Located in Anamosa, United States

ICAO - IA52, IATA -

Data provided by Airmate  

General information

Coordinates: N42°6'4" W91°15'43"
Elevation is 838 feet MSL.
 
View others Airports in Iowa

Operational data

Special qualification required
Current time UTC:
Current local time:
Weather at : KMXO - Monticello Rgnl ( 16 km )
METAR: KMXO 181835Z AUTO VRB04KT 10SM CLR 32/12 A2982 RMK AO2
View NOTAMs / SUP AIP / TFR affecting this airport [VIEW]
Communications frequencies: [VIEW]

Runways:

Airport contact information

Address: Anamosa United States

Satellite view of IA52